createdAt,value
2024-03-10T00:03:13.071Z,11.90
2024-03-10T00:07:16.167Z,11.80
2024-03-10T00:11:19.240Z,11.70
2024-03-10T00:15:22.321Z,11.70
2024-03-10T00:19:26.580Z,11.70
2024-03-10T00:23:29.717Z,11.70
2024-03-10T00:27:32.516Z,11.70
2024-03-10T00:31:36.500Z,11.70
2024-03-10T00:35:39.387Z,11.80
2024-03-10T00:39:42.256Z,11.80
2024-03-10T00:43:45.130Z,11.90
2024-03-10T00:47:49.514Z,12.00
2024-03-10T00:51:52.959Z,12.00
2024-03-10T00:55:56.589Z,12.00
2024-03-10T00:59:59.850Z,12.10
2024-03-10T01:04:02.780Z,12.10
2024-03-10T01:08:05.988Z,12.10
2024-03-10T01:12:12.429Z,12.10
2024-03-10T01:16:15.620Z,12.00
2024-03-10T01:20:18.716Z,11.80
2024-03-10T01:24:22.976Z,11.60
2024-03-10T01:28:26.196Z,11.50
2024-03-10T01:32:29.283Z,11.40
2024-03-10T01:36:32.639Z,11.30
2024-03-10T01:40:35.477Z,11.20
2024-03-10T01:44:38.414Z,11.10
2024-03-10T01:48:41.971Z,11.10
2024-03-10T01:52:48.803Z,11.10
2024-03-10T01:56:52.001Z,11.10
2024-03-10T02:00:55.200Z,11.20
2024-03-10T02:04:59.140Z,11.20
2024-03-10T02:09:04.610Z,11.30
2024-03-10T02:13:07.516Z,11.40
2024-03-10T02:17:12.389Z,11.50
2024-03-10T02:21:19.021Z,11.50
2024-03-10T02:25:25.856Z,11.60
2024-03-10T02:29:34.298Z,11.80
2024-03-10T02:33:55.939Z,11.80
2024-03-10T02:38:17.801Z,12.00
2024-03-10T02:42:39.240Z,12.10
2024-03-10T02:47:09.510Z,12.20
2024-03-10T02:51:12.819Z,12.30
2024-03-10T02:55:16.219Z,12.40
2024-03-10T02:59:19.161Z,12.50
2024-03-10T03:03:22.148Z,12.50
2024-03-10T03:07:25.778Z,12.30
2024-03-10T03:11:28.607Z,12.10
2024-03-10T03:15:33.298Z,12.00
2024-03-10T03:19:41.722Z,12.00
2024-03-10T03:23:46.268Z,12.00
2024-03-10T03:27:51.628Z,12.00
2024-03-10T03:31:54.487Z,12.10
2024-03-10T03:35:58.177Z,12.10
2024-03-10T03:40:01.089Z,11.90
2024-03-10T03:44:05.522Z,11.80
2024-03-10T03:48:08.740Z,11.80
2024-03-10T03:52:11.700Z,11.90
2024-03-10T03:56:16.486Z,12.10
2024-03-10T04:00:19.550Z,12.30
2024-03-10T04:04:23.523Z,12.50
2024-03-10T04:08:26.995Z,12.60
2024-03-10T04:12:30.281Z,12.80
2024-03-10T04:16:33.233Z,12.90
2024-03-10T04:20:36.760Z,13.00
2024-03-10T04:24:41.158Z,13.10
2024-03-10T04:29:07.358Z,13.20
2024-03-10T04:33:13.137Z,13.20
2024-03-10T04:37:16.046Z,13.30
2024-03-10T04:41:19.654Z,13.40
2024-03-10T04:45:22.757Z,13.40
2024-03-10T04:49:27.586Z,13.50
2024-03-10T04:53:34.352Z,13.50
2024-03-10T04:57:37.329Z,13.50
2024-03-10T05:01:40.300Z,13.50
2024-03-10T05:05:43.602Z,13.50
2024-03-10T05:09:46.588Z,13.50
2024-03-10T05:13:49.575Z,13.50
2024-03-10T05:17:53.467Z,13.50
2024-03-10T05:21:56.985Z,13.50
2024-03-10T05:26:01.243Z,13.50
2024-03-10T05:30:05.697Z,13.40
2024-03-10T05:34:11.767Z,13.40
2024-03-10T05:38:15.149Z,13.40
2024-03-10T05:42:23.442Z,13.30
2024-03-10T05:46:26.381Z,13.40
2024-03-10T05:50:30.596Z,13.40
2024-03-10T05:54:33.626Z,13.40
2024-03-10T05:58:37.020Z,13.30
2024-03-10T06:02:41.095Z,13.40
2024-03-10T06:06:44.143Z,13.50
2024-03-10T06:10:52.952Z,13.50
2024-03-10T06:15:01.859Z,13.50
2024-03-10T06:19:20.737Z,13.50
2024-03-10T06:23:42.250Z,13.60
2024-03-10T06:27:45.206Z,13.60
2024-03-10T06:32:04.707Z,13.70
2024-03-10T06:36:15.719Z,13.80
2024-03-10T06:40:24.658Z,13.90
2024-03-10T06:44:27.719Z,14.00
2024-03-10T06:48:35.515Z,14.00
2024-03-10T06:52:39.363Z,14.00
2024-03-10T06:56:42.306Z,14.10
2024-03-10T07:00:45.789Z,14.20
2024-03-10T07:04:48.689Z,14.30
2024-03-10T07:08:51.651Z,14.40
2024-03-10T07:12:54.651Z,14.40
2024-03-10T07:16:57.521Z,14.50
2024-03-10T07:21:00.680Z,14.50
2024-03-10T07:25:09.597Z,14.60
2024-03-10T07:29:13.877Z,14.50
2024-03-10T07:33:16.784Z,14.50
2024-03-10T07:37:20.112Z,14.50
2024-03-10T07:41:23.398Z,14.60
2024-03-10T07:45:26.369Z,14.60
2024-03-10T07:49:29.382Z,14.60
2024-03-10T07:53:32.867Z,14.60
2024-03-10T07:57:35.908Z,14.70
2024-03-10T08:01:38.859Z,14.70
2024-03-10T08:05:41.860Z,14.70
2024-03-10T08:09:45.184Z,14.70
2024-03-10T08:13:48.042Z,14.60
2024-03-10T08:17:51.070Z,14.60
2024-03-10T08:21:53.915Z,14.60
2024-03-10T08:25:57.271Z,14.60
2024-03-10T08:30:00.246Z,14.60
2024-03-10T08:34:03.160Z,14.70
2024-03-10T08:38:08.616Z,14.80
2024-03-10T08:42:13.912Z,14.90
2024-03-10T08:46:16.972Z,15.00
2024-03-10T08:50:19.923Z,15.20
2024-03-10T08:54:22.893Z,15.40
2024-03-10T08:58:26.311Z,15.50
2024-03-10T09:02:29.952Z,15.60
2024-03-10T09:06:32.884Z,15.60
2024-03-10T09:10:44.402Z,15.60
2024-03-10T09:14:56.209Z,15.60
2024-03-10T09:18:59.803Z,15.60
2024-03-10T09:23:02.789Z,15.60
2024-03-10T09:27:05.968Z,15.50
2024-03-10T09:31:10.786Z,15.50
2024-03-10T09:35:14.038Z,15.50
2024-03-10T09:39:17.564Z,15.50
2024-03-10T09:43:25.621Z,15.50
2024-03-10T09:47:31.690Z,15.50
2024-03-10T09:51:36.521Z,15.50
2024-03-10T09:55:40.124Z,15.60
2024-03-10T09:59:44.766Z,15.50
2024-03-10T10:03:54.340Z,15.50
2024-03-10T10:07:58.525Z,15.50
2024-03-10T10:12:03.311Z,15.50
2024-03-10T10:16:10.434Z,15.50
2024-03-10T10:20:14.201Z,15.50
2024-03-10T10:24:17.444Z,15.50
2024-03-10T10:28:21.081Z,15.50
2024-03-10T10:32:25.427Z,15.50
2024-03-10T10:36:28.481Z,15.50
2024-03-10T10:40:31.962Z,15.60
2024-03-10T10:44:36.113Z,15.70
2024-03-10T10:48:43.153Z,15.80
2024-03-10T10:52:46.904Z,15.90
2024-03-10T10:57:14.118Z,15.80
2024-03-10T11:01:17.653Z,15.80
2024-03-10T11:05:21.001Z,15.70
2024-03-10T11:09:32.216Z,15.60
2024-03-10T11:13:39.790Z,15.60
2024-03-10T11:17:48.143Z,15.60
2024-03-10T11:21:53.915Z,15.60
2024-03-10T11:26:03.006Z,15.70
2024-03-10T11:30:46.012Z,15.70
2024-03-10T11:34:49.893Z,15.70
2024-03-10T11:38:53.492Z,15.70
2024-03-10T11:42:57.261Z,15.50
2024-03-10T11:47:03.120Z,15.30
2024-03-10T11:51:09.567Z,15.20
2024-03-10T11:55:14.803Z,15.10
2024-03-10T11:59:18.795Z,15.00
2024-03-10T12:03:24.535Z,14.80
2024-03-10T12:07:28.323Z,14.60
2024-03-10T12:11:31.186Z,14.50
2024-03-10T12:15:38.527Z,14.30
2024-03-10T12:19:43.703Z,14.20
2024-03-10T12:23:47.558Z,14.10
2024-03-10T12:27:51.353Z,14.00
2024-03-10T12:31:56.157Z,13.90
2024-03-10T12:36:00.216Z,13.80
2024-03-10T12:40:07.113Z,13.70
2024-03-10T12:44:15.390Z,13.70
2024-03-10T13:16:20.937Z,12.30
2024-03-10T13:21:47.555Z,12.30
2024-03-10T13:26:02.779Z,12.20
2024-03-10T13:30:17.365Z,12.20
2024-03-10T13:34:21.753Z,12.30
2024-03-10T13:38:30.745Z,12.30
2024-03-10T13:42:33.877Z,12.40
2024-03-10T13:46:38.947Z,12.40
2024-03-10T13:50:45.853Z,12.50
2024-03-10T13:54:54.698Z,12.50
2024-03-10T13:59:06.695Z,12.60
2024-03-10T14:03:09.721Z,12.50
2024-03-10T14:07:20.093Z,12.20
2024-03-10T14:11:23.233Z,11.90
2024-03-10T14:15:32.317Z,11.60
2024-03-10T14:19:38.448Z,11.50
2024-03-10T14:23:41.565Z,11.40
2024-03-10T14:27:46.984Z,11.20
2024-03-10T14:31:52.662Z,11.10
2024-03-10T14:35:58.435Z,11.10
2024-03-10T14:40:07.719Z,11.10
2024-03-10T14:44:11.744Z,11.10
2024-03-10T14:48:18.105Z,11.00
2024-03-10T14:52:26.431Z,11.10
2024-03-10T14:56:31.945Z,11.00
2024-03-10T15:00:41.092Z,11.00
2024-03-10T15:04:49.185Z,11.00
2024-03-10T15:09:14.499Z,11.00
2024-03-10T15:13:19.394Z,11.10
2024-03-10T15:17:24.864Z,11.10
2024-03-10T15:21:30.840Z,11.20
2024-03-10T15:25:37.988Z,11.30
2024-03-10T15:29:52.324Z,11.30
2024-03-10T15:33:57.959Z,11.30
2024-03-10T15:38:07.365Z,11.30
2024-03-10T15:42:19.730Z,11.30
2024-03-10T15:52:03.446Z,11.30
2024-03-10T15:56:06.654Z,11.20
2024-03-10T16:00:22.667Z,11.30
2024-03-10T16:05:32.931Z,11.30
2024-03-10T16:10:02.516Z,11.30
2024-03-10T16:14:17.994Z,11.30
2024-03-10T16:18:23.898Z,11.30
2024-03-10T16:22:38.631Z,11.30
2024-03-10T16:32:33.486Z,11.30
2024-03-10T16:33:01.178Z,11.40
2024-03-10T16:36:58.636Z,11.50
2024-03-10T16:41:42.787Z,11.50
2024-03-10T16:45:51.865Z,11.60
2024-03-10T16:50:15.297Z,11.50
2024-03-10T16:54:19.332Z,11.60
2024-03-10T16:58:29.166Z,11.60
2024-03-10T17:02:35.061Z,11.60
2024-03-10T17:06:54.588Z,11.60
2024-03-10T17:11:07.172Z,11.50
2024-03-10T17:15:17.642Z,11.50
2024-03-10T17:19:28.332Z,11.40
2024-03-10T17:23:41.131Z,11.30
2024-03-10T17:27:45.100Z,11.30
2024-03-10T17:31:48.212Z,11.30
2024-03-10T17:35:51.439Z,11.20
2024-03-10T17:40:06.274Z,11.20
2024-03-10T17:44:17.216Z,11.20
2024-03-10T17:48:29.830Z,11.20
2024-03-10T17:52:35.538Z,11.10
2024-03-10T17:56:43.786Z,11.00
2024-03-10T18:00:50.320Z,11.00
2024-03-10T18:05:00.985Z,11.00
2024-03-10T18:09:10.645Z,11.00
2024-03-10T18:13:21.430Z,11.00
2024-03-10T18:17:25.417Z,10.90
2024-03-10T18:21:28.666Z,10.80
2024-03-10T18:25:32.114Z,10.70
2024-03-10T18:29:37.678Z,10.60
2024-03-10T18:33:42.032Z,10.50
2024-03-10T18:37:46.257Z,10.50
2024-03-10T18:41:51.833Z,10.50
2024-03-10T19:35:36.283Z,10.20
2024-03-10T19:39:39.541Z,10.30
2024-03-10T19:43:42.651Z,10.40
2024-03-10T19:47:46.530Z,10.50
2024-03-10T19:51:57.400Z,10.50
2024-03-10T19:56:06.562Z,10.50
2024-03-10T20:00:17.537Z,10.60
2024-03-10T20:04:24.888Z,10.60
2024-03-10T20:08:28.047Z,10.70
2024-03-10T20:12:36.669Z,10.70
2024-03-10T20:16:40.743Z,10.60
2024-03-10T20:20:46.089Z,10.60
2024-03-10T20:24:52.434Z,10.60
2024-03-10T20:28:55.575Z,10.60
2024-03-10T20:32:59.489Z,10.60
2024-03-10T20:37:02.678Z,10.60
2024-03-10T20:41:08.121Z,10.60
2024-03-10T20:45:14.385Z,10.60
2024-03-10T20:49:26.399Z,10.60
2024-03-10T21:00:29.310Z,10.50
2024-03-10T21:05:53.424Z,10.30
2024-03-10T21:10:00.469Z,10.10
2024-03-10T21:30:36.791Z,9.80
2024-03-10T21:34:42.572Z,9.90
2024-03-10T21:38:54.656Z,9.60
2024-03-10T21:42:58.020Z,9.50
2024-03-10T21:47:01.372Z,9.40
2024-03-10T21:51:07.537Z,9.20
2024-03-10T21:55:10.726Z,9.10
2024-03-10T21:59:15.994Z,9.10
2024-03-10T22:03:21.443Z,9.20
2024-03-10T22:07:24.671Z,9.20
2024-03-10T22:11:33.265Z,9.20
2024-03-10T22:15:36.436Z,9.20
2024-03-10T22:19:39.740Z,9.20
2024-03-10T22:23:46.342Z,9.20
2024-03-10T22:27:53.159Z,9.20
2024-03-10T22:31:56.292Z,9.10
2024-03-10T22:36:00.795Z,9.10
2024-03-10T22:40:12.732Z,9.10
2024-03-10T22:44:18.091Z,9.10
2024-03-10T22:48:21.514Z,9.10
2024-03-10T22:52:35.416Z,9.00
2024-03-10T22:56:41.251Z,9.10
2024-03-10T23:00:48.345Z,9.10
2024-03-10T23:05:02.107Z,9.10
2024-03-10T23:09:05.976Z,9.00
2024-03-10T23:13:12.077Z,9.00
2024-03-10T23:17:19.698Z,9.00
2024-03-10T23:21:24.556Z,9.00
2024-03-10T23:25:29.529Z,8.90
2024-03-10T23:29:33.707Z,8.90
2024-03-10T23:33:37.143Z,8.90
2024-03-10T23:37:40.488Z,8.90
2024-03-10T23:41:43.656Z,8.80
2024-03-10T23:45:46.904Z,8.90
2024-03-10T23:49:49.907Z,8.90
2024-03-10T23:53:54.028Z,9.00
2024-03-10T23:57:58.772Z,8.90
